createdAt,value
2022-08-26T00:00:52.219Z,37.21
2022-08-26T00:02:01.303Z,37.21
2022-08-26T00:03:09.829Z,37.18
2022-08-26T00:04:17.821Z,37.18
2022-08-26T00:05:26.483Z,37.25
2022-08-26T00:06:37.828Z,37.27
2022-08-26T00:07:51.055Z,37.19
2022-08-26T00:08:58.562Z,36.94
2022-08-26T00:10:08.397Z,36.71
2022-08-26T00:11:16.140Z,36.50
2022-08-26T00:12:37.756Z,36.37
2022-08-26T00:13:46.823Z,36.32
2022-08-26T00:14:56.918Z,36.22
2022-08-26T00:16:05.485Z,36.04
2022-08-26T00:17:16.030Z,35.92
2022-08-26T00:18:26.878Z,35.75
2022-08-26T00:19:34.774Z,35.71
2022-08-26T00:20:43.497Z,35.81
2022-08-26T00:21:56.149Z,35.89
2022-08-26T00:23:05.612Z,35.93
2022-08-26T00:24:16.344Z,35.79
2022-08-26T00:25:25.003Z,35.79
2022-08-26T00:26:36.400Z,35.92
2022-08-26T00:27:45.589Z,35.90
2022-08-26T00:28:53.381Z,35.82
2022-08-26T00:30:06.019Z,35.89
2022-08-26T00:31:13.618Z,35.73
2022-08-26T00:32:22.854Z,35.77
2022-08-26T00:33:32.931Z,35.79
2022-08-26T00:34:42.531Z,35.81
2022-08-26T00:35:49.789Z,35.84
2022-08-26T00:37:00.115Z,36.03
2022-08-26T00:38:08.432Z,36.04
2022-08-26T00:39:22.372Z,36.09
2022-08-26T00:40:37.158Z,36.09
2022-08-26T00:41:46.554Z,35.97
2022-08-26T00:42:54.282Z,35.91
2022-08-26T00:44:02.078Z,35.92
2022-08-26T00:45:11.814Z,35.90
2022-08-26T00:46:33.502Z,35.84
2022-08-26T00:47:59.047Z,35.83
2022-08-26T00:49:38.867Z,36.00
2022-08-26T00:51:00.615Z,36.04
2022-08-26T00:52:16.913Z,36.04
2022-08-26T00:53:28.654Z,36.01
2022-08-26T00:54:39.334Z,35.90
2022-08-26T00:55:53.011Z,35.54
2022-08-26T00:57:02.908Z,35.55
2022-08-26T00:58:13.591Z,35.53
2022-08-26T00:59:22.713Z,35.23
2022-08-26T01:00:32.992Z,35.07
2022-08-26T01:01:42.010Z,35.11
2022-08-26T01:02:50.438Z,35.30
2022-08-26T01:03:58.980Z,35.39
2022-08-26T01:05:09.121Z,35.21
2022-08-26T01:06:16.753Z,35.20
2022-08-26T01:07:30.302Z,35.15
2022-08-26T01:08:41.574Z,35.06
2022-08-26T01:09:49.216Z,35.10
2022-08-26T01:10:57.422Z,34.98
2022-08-26T01:12:06.411Z,34.98
2022-08-26T01:13:16.383Z,34.98
2022-08-26T01:14:30.649Z,34.95
2022-08-26T01:15:58.311Z,34.84
2022-08-26T01:17:09.036Z,34.68
2022-08-26T01:18:19.711Z,34.66
2022-08-26T01:19:34.095Z,34.67
2022-08-26T01:21:20.788Z,34.65
2022-08-26T01:22:33.436Z,34.55
2022-08-26T01:23:48.047Z,34.45
2022-08-26T01:24:55.352Z,34.44
2022-08-26T01:26:15.335Z,34.40
2022-08-26T01:27:28.723Z,34.39
2022-08-26T01:28:42.146Z,34.41
2022-08-26T01:29:50.395Z,34.40
2022-08-26T01:30:57.642Z,34.30
2022-08-26T01:32:05.096Z,34.24
2022-08-26T01:33:14.729Z,34.18
2022-08-26T01:34:32.446Z,34.08
2022-08-26T01:35:39.938Z,33.98
2022-08-26T01:36:51.194Z,33.91
2022-08-26T01:38:01.840Z,33.86
2022-08-26T01:39:10.784Z,33.83
2022-08-26T01:40:21.000Z,33.80
2022-08-26T01:41:30.994Z,33.66
2022-08-26T01:42:38.292Z,33.57
2022-08-26T01:43:48.419Z,33.44
2022-08-26T01:44:59.972Z,33.29
2022-08-26T01:46:10.359Z,33.19
2022-08-26T01:47:19.538Z,33.07
2022-08-26T01:48:32.467Z,33.00
2022-08-26T01:49:39.799Z,32.87
2022-08-26T01:50:48.235Z,32.75
2022-08-26T01:51:56.365Z,32.63
2022-08-26T01:53:08.767Z,32.43
2022-08-26T01:54:18.407Z,32.29
2022-08-26T01:55:33.419Z,32.18
2022-08-26T01:56:42.487Z,32.08
2022-08-26T01:57:51.012Z,31.97
2022-08-26T01:59:09.378Z,31.89
2022-08-26T02:00:21.385Z,31.81
2022-08-26T02:01:30.106Z,31.73
2022-08-26T02:02:38.670Z,31.65
2022-08-26T02:04:11.921Z,31.59
2022-08-26T02:05:22.395Z,31.45
2022-08-26T02:06:31.092Z,31.28
2022-08-26T02:07:40.683Z,31.12
2022-08-26T02:08:52.394Z,30.99
2022-08-26T02:10:00.849Z,30.85
2022-08-26T02:11:08.551Z,30.68
2022-08-26T02:12:17.079Z,30.50
2022-08-26T02:13:32.932Z,30.37
2022-08-26T02:14:43.980Z,30.24
2022-08-26T02:15:53.728Z,30.09
2022-08-26T02:17:00.941Z,29.98
2022-08-26T02:18:09.559Z,29.87
2022-08-26T02:19:29.570Z,29.74
2022-08-26T02:20:40.799Z,29.62
2022-08-26T02:21:51.218Z,29.53
2022-08-26T02:22:59.392Z,29.42
2022-08-26T02:24:18.903Z,29.32
2022-08-26T02:25:57.056Z,29.22
2022-08-26T02:27:05.283Z,29.11
2022-08-26T02:28:15.093Z,29.04
2022-08-26T02:29:36.400Z,28.99
2022-08-26T02:30:45.375Z,28.90
2022-08-26T02:31:54.125Z,28.83
2022-08-26T02:33:08.318Z,28.77
2022-08-26T02:34:18.049Z,28.71
2022-08-26T02:35:27.661Z,28.67
2022-08-26T02:36:36.501Z,28.62
2022-08-26T02:37:45.358Z,28.58
2022-08-26T02:38:53.931Z,28.53
2022-08-26T02:40:04.073Z,28.49
2022-08-26T02:41:13.003Z,28.44
2022-08-26T02:42:24.131Z,28.40
2022-08-26T02:43:33.875Z,28.37
2022-08-26T02:44:42.462Z,28.33
2022-08-26T02:45:52.608Z,28.28
2022-08-26T02:47:03.799Z,28.25
2022-08-26T02:48:18.854Z,28.21
2022-08-26T02:49:27.755Z,28.20
2022-08-26T02:50:37.177Z,28.16
2022-08-26T02:51:45.866Z,28.13
2022-08-26T02:52:57.550Z,28.11
2022-08-26T02:54:06.617Z,28.07
2022-08-26T02:55:17.311Z,28.05
2022-08-26T02:56:27.327Z,28.01
2022-08-26T02:57:39.367Z,27.98
2022-08-26T02:58:48.594Z,27.96
2022-08-26T02:59:56.508Z,27.93
2022-08-26T03:01:05.853Z,27.91
2022-08-26T03:02:15.096Z,27.89
2022-08-26T03:03:24.422Z,27.86
2022-08-26T03:04:35.858Z,27.83
2022-08-26T03:05:44.328Z,27.80
2022-08-26T03:06:55.290Z,27.77
2022-08-26T03:08:04.202Z,27.75
2022-08-26T03:09:18.847Z,27.72
2022-08-26T03:10:29.158Z,27.68
2022-08-26T03:11:38.679Z,27.66
2022-08-26T03:12:48.130Z,27.63
2022-08-26T03:13:55.213Z,27.60
2022-08-26T03:15:02.671Z,27.57
2022-08-26T03:16:27.212Z,27.53
2022-08-26T03:17:41.998Z,27.50
2022-08-26T03:18:53.029Z,27.48
2022-08-26T03:20:03.796Z,27.47
2022-08-26T03:21:13.148Z,27.44
2022-08-26T03:22:23.714Z,27.42
2022-08-26T03:23:33.793Z,27.39
2022-08-26T03:24:46.132Z,27.37
2022-08-26T03:25:58.729Z,27.34
2022-08-26T03:27:08.887Z,27.33
2022-08-26T03:28:16.434Z,27.30
2022-08-26T03:29:49.538Z,27.27
2022-08-26T03:30:59.094Z,27.22
2022-08-26T03:32:07.117Z,27.19
2022-08-26T03:33:14.795Z,27.16
2022-08-26T03:34:24.297Z,27.13
2022-08-26T03:35:45.043Z,27.09
2022-08-26T03:36:54.316Z,27.06
2022-08-26T03:38:04.774Z,27.03
2022-08-26T03:39:14.466Z,27.01
2022-08-26T03:40:22.367Z,26.99
2022-08-26T03:41:34.189Z,26.97
2022-08-26T03:42:45.455Z,26.94
2022-08-26T03:43:53.451Z,26.92
2022-08-26T03:45:02.541Z,26.88
2022-08-26T03:46:13.321Z,26.86
2022-08-26T03:47:24.266Z,26.84
2022-08-26T03:48:32.176Z,26.82
2022-08-26T03:49:40.599Z,26.81
2022-08-26T03:50:50.984Z,26.80
2022-08-26T03:52:01.388Z,26.77
2022-08-26T03:53:13.114Z,26.75
2022-08-26T03:54:22.237Z,26.73
2022-08-26T03:55:33.828Z,26.71
2022-08-26T03:56:42.445Z,26.68
2022-08-26T03:57:57.693Z,26.65
2022-08-26T03:59:07.810Z,26.62
2022-08-26T04:00:18.487Z,26.59
2022-08-26T04:01:29.472Z,26.55
2022-08-26T04:02:39.538Z,26.52
2022-08-26T04:04:00.869Z,26.50
2022-08-26T04:05:10.982Z,26.47
2022-08-26T04:06:20.541Z,26.43
2022-08-26T04:07:32.172Z,26.40
2022-08-26T04:08:41.511Z,26.37
2022-08-26T04:09:50.615Z,26.35
2022-08-26T04:10:58.947Z,26.32
2022-08-26T04:12:07.136Z,26.31
2022-08-26T04:13:17.258Z,26.29
2022-08-26T04:14:28.847Z,26.28
2022-08-26T04:15:38.314Z,26.25
2022-08-26T04:16:46.607Z,26.23
2022-08-26T04:17:55.873Z,26.21
2022-08-26T04:19:05.485Z,26.19
2022-08-26T04:20:16.207Z,26.17
2022-08-26T04:21:28.148Z,26.14
2022-08-26T04:22:40.985Z,26.12
2022-08-26T04:23:49.091Z,26.09
2022-08-26T04:24:58.981Z,26.07
2022-08-26T04:26:09.290Z,26.05
2022-08-26T04:27:19.906Z,26.03
2022-08-26T04:28:28.218Z,26.02
2022-08-26T04:29:36.891Z,26.00
2022-08-26T04:30:47.255Z,25.97
2022-08-26T04:31:56.691Z,25.95
2022-08-26T04:33:13.190Z,25.93
2022-08-26T04:34:28.346Z,25.89
2022-08-26T04:35:39.130Z,25.85
2022-08-26T04:36:52.932Z,25.82
2022-08-26T04:38:02.727Z,25.79
2022-08-26T04:39:15.364Z,25.77
2022-08-26T04:40:26.514Z,25.74
2022-08-26T04:41:39.175Z,25.72
2022-08-26T04:42:49.729Z,25.69
2022-08-26T04:44:04.036Z,25.67
2022-08-26T04:45:13.327Z,25.67
2022-08-26T04:46:25.896Z,25.65
2022-08-26T04:47:34.676Z,25.64
2022-08-26T04:48:43.875Z,25.62
2022-08-26T04:49:56.615Z,25.61
2022-08-26T04:51:06.893Z,25.59
2022-08-26T04:52:18.211Z,25.57
2022-08-26T04:53:29.258Z,25.54
2022-08-26T04:54:42.038Z,25.51
2022-08-26T04:55:52.442Z,25.49
2022-08-26T04:57:04.009Z,25.45
2022-08-26T04:58:13.169Z,25.41
2022-08-26T04:59:24.561Z,25.37
2022-08-26T05:00:35.553Z,25.34
2022-08-26T05:01:46.006Z,25.32
2022-08-26T05:02:53.847Z,25.29
2022-08-26T05:04:01.965Z,25.26
2022-08-26T05:05:14.069Z,25.24
2022-08-26T05:06:22.542Z,25.22
2022-08-26T05:07:33.258Z,25.20
2022-08-26T05:08:42.328Z,25.16
2022-08-26T05:09:51.488Z,25.12
2022-08-26T05:11:01.683Z,25.08
2022-08-26T05:12:11.759Z,25.01
2022-08-26T05:13:22.223Z,24.94
2022-08-26T05:14:34.106Z,24.85
2022-08-26T05:15:44.227Z,24.79
2022-08-26T05:16:53.877Z,24.76
2022-08-26T05:18:01.387Z,24.72
2022-08-26T05:19:09.420Z,24.68
2022-08-26T05:20:25.584Z,24.62
2022-08-26T05:21:37.277Z,24.54
2022-08-26T05:22:46.908Z,24.47
2022-08-26T05:23:58.976Z,24.40
2022-08-26T05:25:07.249Z,24.34
2022-08-26T05:26:16.698Z,24.29
2022-08-26T05:27:25.588Z,24.22
2022-08-26T05:28:34.407Z,24.17
2022-08-26T05:29:44.868Z,24.11
2022-08-26T05:30:52.947Z,24.07
2022-08-26T05:32:02.528Z,24.04
2022-08-26T05:33:11.796Z,24.03
2022-08-26T05:34:22.505Z,24.02
2022-08-26T05:35:36.428Z,24.01
2022-08-26T05:36:44.927Z,24.02
2022-08-26T05:37:55.133Z,24.03
2022-08-26T05:39:02.635Z,24.05
2022-08-26T05:40:11.165Z,24.08
2022-08-26T05:41:34.432Z,24.08
2022-08-26T05:42:49.357Z,24.09
2022-08-26T05:44:01.577Z,24.08
2022-08-26T05:45:11.336Z,24.07
2022-08-26T05:46:19.049Z,24.06
2022-08-26T05:47:28.450Z,24.06
2022-08-26T05:48:38.832Z,24.05
2022-08-26T05:49:53.323Z,24.05
2022-08-26T05:51:05.068Z,24.03
2022-08-26T05:52:14.541Z,24.01
2022-08-26T05:53:23.979Z,23.99
2022-08-26T05:54:36.170Z,23.98
2022-08-26T05:55:48.525Z,23.97
2022-08-26T05:56:56.470Z,23.97
2022-08-26T05:58:04.221Z,23.96
2022-08-26T05:59:15.288Z,23.95
2022-08-26T06:00:26.014Z,23.94
2022-08-26T06:01:36.454Z,23.92
2022-08-26T06:02:48.369Z,23.90
2022-08-26T06:04:01.758Z,23.88
2022-08-26T06:05:12.963Z,23.87
2022-08-26T06:06:29.327Z,23.84
2022-08-26T06:07:59.266Z,23.81
2022-08-26T06:09:09.593Z,23.77
2022-08-26T06:10:32.229Z,23.75
2022-08-26T06:11:44.960Z,23.74
2022-08-26T06:12:53.426Z,23.73
2022-08-26T06:14:04.224Z,23.74
2022-08-26T06:15:13.959Z,23.75
2022-08-26T06:16:26.235Z,23.74
2022-08-26T06:17:41.315Z,23.74
2022-08-26T06:18:52.277Z,23.72
2022-08-26T06:20:02.696Z,23.70
2022-08-26T06:21:19.944Z,23.67
2022-08-26T06:22:51.341Z,23.65
2022-08-26T06:24:35.421Z,23.63
2022-08-26T06:25:46.667Z,23.61
2022-08-26T06:26:56.698Z,23.60
2022-08-26T06:28:07.921Z,23.58
2022-08-26T06:29:24.230Z,23.56
2022-08-26T06:30:35.564Z,23.54
2022-08-26T06:31:47.562Z,23.51
2022-08-26T06:32:55.258Z,23.47
2022-08-26T06:34:04.390Z,23.45
2022-08-26T06:35:15.048Z,23.42
2022-08-26T06:36:24.109Z,23.39
2022-08-26T06:37:32.915Z,23.36
2022-08-26T06:38:43.364Z,23.34
2022-08-26T06:39:51.419Z,23.33
2022-08-26T06:41:00.439Z,23.31
2022-08-26T06:42:09.261Z,23.30
2022-08-26T06:43:18.903Z,23.27
2022-08-26T06:44:27.387Z,23.23
2022-08-26T06:45:36.226Z,23.19
2022-08-26T06:46:44.647Z,23.15
2022-08-26T06:47:52.071Z,23.12
2022-08-26T06:49:02.516Z,23.09
2022-08-26T06:50:11.637Z,23.07
2022-08-26T06:51:22.307Z,23.06
2022-08-26T06:52:31.030Z,23.06
2022-08-26T06:53:41.147Z,23.05
2022-08-26T06:54:48.751Z,23.03
2022-08-26T06:55:59.344Z,23.02
2022-08-26T06:57:07.116Z,23.01
2022-08-26T06:58:16.146Z,22.99
2022-08-26T06:59:23.795Z,22.98
2022-08-26T07:00:32.955Z,22.96
2022-08-26T07:01:45.881Z,22.94
2022-08-26T07:02:53.307Z,22.92
2022-08-26T07:04:01.803Z,22.90
2022-08-26T07:05:10.403Z,22.88
2022-08-26T07:06:20.247Z,22.87
2022-08-26T07:07:27.637Z,22.86
2022-08-26T07:08:35.555Z,22.84
2022-08-26T07:09:45.157Z,22.83
2022-08-26T07:10:55.964Z,22.82
2022-08-26T07:12:05.748Z,22.80
2022-08-26T07:13:15.593Z,22.79
2022-08-26T07:14:24.068Z,22.77
2022-08-26T07:15:35.504Z,22.76
2022-08-26T07:16:46.322Z,22.74
2022-08-26T07:17:54.317Z,22.71
2022-08-26T07:19:10.755Z,22.70
2022-08-26T07:20:20.170Z,22.69
2022-08-26T07:21:29.911Z,22.68
2022-08-26T07:22:41.014Z,22.68
2022-08-26T07:23:50.969Z,22.67
2022-08-26T07:24:59.727Z,22.66
2022-08-26T07:26:13.234Z,22.65
2022-08-26T07:27:20.009Z,22.62
2022-08-26T07:28:31.301Z,22.61
2022-08-26T07:29:39.228Z,22.59
2022-08-26T07:30:46.791Z,22.58
2022-08-26T07:31:56.329Z,22.56
2022-08-26T07:33:04.838Z,22.55
2022-08-26T07:34:15.391Z,22.54
2022-08-26T07:35:25.376Z,22.52
2022-08-26T07:36:33.177Z,22.51
2022-08-26T07:37:43.550Z,22.50
2022-08-26T07:38:53.184Z,22.49
2022-08-26T07:40:01.882Z,22.47
2022-08-26T07:41:10.678Z,22.44
2022-08-26T07:42:19.731Z,22.42
2022-08-26T07:43:27.092Z,22.40
2022-08-26T07:44:39.440Z,22.38
2022-08-26T07:45:49.452Z,22.36
2022-08-26T07:46:57.481Z,22.33
2022-08-26T07:48:05.965Z,22.33
2022-08-26T07:49:14.749Z,22.33
2022-08-26T07:50:49.200Z,22.33
2022-08-26T07:51:54.795Z,22.31
2022-08-26T07:53:03.746Z,22.29
2022-08-26T07:54:11.589Z,22.28
2022-08-26T07:55:21.625Z,22.26
2022-08-26T07:56:30.763Z,22.23
2022-08-26T07:57:39.982Z,22.21
2022-08-26T07:58:51.280Z,22.19
2022-08-26T08:00:02.235Z,22.16
2022-08-26T08:01:19.690Z,22.12
2022-08-26T08:02:27.646Z,22.09
2022-08-26T08:03:37.898Z,22.07
2022-08-26T08:04:45.412Z,22.05
2022-08-26T08:05:55.012Z,22.02
2022-08-26T08:07:04.899Z,22.00
2022-08-26T08:08:27.890Z,21.98
2022-08-26T08:09:42.387Z,21.95
2022-08-26T08:10:49.598Z,21.92
2022-08-26T08:11:56.733Z,21.90
2022-08-26T08:13:05.327Z,21.88
2022-08-26T08:14:12.563Z,21.87
2022-08-26T08:15:21.900Z,21.88
2022-08-26T08:16:32.402Z,21.90
2022-08-26T08:17:47.454Z,21.91
2022-08-26T08:19:00.337Z,21.91
2022-08-26T08:20:08.727Z,21.92
2022-08-26T08:21:21.723Z,21.93
2022-08-26T08:22:33.740Z,21.94
2022-08-26T08:23:41.106Z,21.94
2022-08-26T08:24:53.066Z,21.94
2022-08-26T08:26:09.184Z,21.94
2022-08-26T08:27:17.217Z,21.94
2022-08-26T08:28:28.254Z,21.94
2022-08-26T08:29:38.566Z,21.93
2022-08-26T08:30:46.012Z,21.93
2022-08-26T08:31:57.033Z,21.93
2022-08-26T08:33:06.909Z,21.92
2022-08-26T08:34:18.300Z,21.90
2022-08-26T08:35:28.591Z,21.88
2022-08-26T08:36:37.790Z,21.85
2022-08-26T08:37:46.851Z,21.82
2022-08-26T08:38:54.543Z,21.78
2022-08-26T08:40:02.507Z,21.73
2022-08-26T08:41:20.932Z,21.70
2022-08-26T08:42:45.974Z,21.66
2022-08-26T08:43:54.898Z,21.63
2022-08-26T08:45:09.612Z,21.60
2022-08-26T08:46:18.505Z,21.59
2022-08-26T08:47:40.313Z,21.59
2022-08-26T08:48:58.377Z,21.58
2022-08-26T08:50:27.009Z,21.58
2022-08-26T08:51:42.517Z,21.58
2022-08-26T08:53:35.769Z,21.57
2022-08-26T08:54:44.455Z,21.57
2022-08-26T08:56:04.425Z,21.56
2022-08-26T08:57:30.048Z,21.57
2022-08-26T08:58:46.729Z,21.58
2022-08-26T09:00:04.634Z,21.59
2022-08-26T09:01:28.611Z,21.60
2022-08-26T09:02:53.038Z,21.61
2022-08-26T09:04:25.523Z,21.61
2022-08-26T09:05:38.906Z,21.60
2022-08-26T09:06:46.893Z,21.59
2022-08-26T09:08:06.739Z,21.59
2022-08-26T09:09:24.865Z,21.58
2022-08-26T09:10:34.076Z,21.57
2022-08-26T09:11:45.578Z,21.57
2022-08-26T09:12:54.798Z,21.57
2022-08-26T09:14:04.136Z,21.57
2022-08-26T09:15:20.823Z,21.56
2022-08-26T09:16:36.321Z,21.55
2022-08-26T09:18:23.572Z,21.51
2022-08-26T09:19:38.326Z,21.48
2022-08-26T09:20:51.248Z,21.44
2022-08-26T09:21:59.651Z,21.40
2022-08-26T09:23:07.014Z,21.36
2022-08-26T09:24:19.398Z,21.33
2022-08-26T09:25:30.461Z,21.29
2022-08-26T09:26:48.996Z,21.27
2022-08-26T09:27:57.140Z,21.26
2022-08-26T09:29:12.535Z,21.25
2022-08-26T09:30:30.654Z,21.24
2022-08-26T09:31:39.252Z,21.22
2022-08-26T09:33:03.788Z,21.21
2022-08-26T09:34:26.056Z,21.20
2022-08-26T09:35:41.413Z,21.18
2022-08-26T09:36:58.846Z,21.15
2022-08-26T09:38:28.961Z,21.13
2022-08-26T09:39:39.439Z,21.10
2022-08-26T09:40:59.284Z,21.07
2022-08-26T09:42:35.003Z,21.04
2022-08-26T09:43:43.694Z,21.01
2022-08-26T09:45:07.800Z,20.99
2022-08-26T09:46:22.133Z,20.97
2022-08-26T09:47:48.245Z,20.95
2022-08-26T09:48:56.249Z,20.94
2022-08-26T09:50:21.409Z,20.93
2022-08-26T09:51:36.459Z,20.92
2022-08-26T09:52:45.019Z,20.91
2022-08-26T09:54:02.140Z,20.91
2022-08-26T09:55:13.185Z,20.90
2022-08-26T09:56:28.225Z,20.90
2022-08-26T09:57:36.595Z,20.91
2022-08-26T09:58:48.298Z,20.92
2022-08-26T09:59:56.689Z,20.92
2022-08-26T10:01:04.625Z,20.92
2022-08-26T10:02:34.486Z,20.92
2022-08-26T10:03:41.906Z,20.92
2022-08-26T10:04:55.483Z,20.90
2022-08-26T10:06:26.033Z,20.87
2022-08-26T10:07:51.134Z,20.85
2022-08-26T10:09:00.377Z,20.85
2022-08-26T10:10:38.698Z,20.85
2022-08-26T10:12:13.172Z,20.85
2022-08-26T10:13:44.587Z,20.85
2022-08-26T10:14:55.773Z,20.85
2022-08-26T10:16:03.293Z,20.85
2022-08-26T10:17:30.776Z,20.87
2022-08-26T10:19:02.899Z,20.87
2022-08-26T10:20:25.098Z,20.87
2022-08-26T10:22:03.858Z,20.86
2022-08-26T10:23:28.396Z,20.84
2022-08-26T10:24:54.511Z,20.83
2022-08-26T10:26:14.064Z,20.83
2022-08-26T10:28:36.398Z,20.82
2022-08-26T10:29:49.208Z,20.79
2022-08-26T10:31:27.699Z,20.79
2022-08-26T10:32:41.693Z,20.80
2022-08-26T10:33:58.046Z,20.81
2022-08-26T10:35:11.127Z,20.82
2022-08-26T10:37:05.111Z,20.82
2022-08-26T10:38:16.078Z,20.81
2022-08-26T10:39:38.133Z,20.80
2022-08-26T10:41:19.188Z,20.79
2022-08-26T10:42:52.358Z,20.78
2022-08-26T10:44:08.210Z,20.76
2022-08-26T10:45:23.639Z,20.75
2022-08-26T10:46:40.991Z,20.74
2022-08-26T10:47:51.039Z,20.73
2022-08-26T10:49:28.451Z,20.71
2022-08-26T10:50:43.333Z,20.70
2022-08-26T10:51:58.539Z,20.69
2022-08-26T10:53:05.899Z,20.70
2022-08-26T10:54:41.126Z,20.68
2022-08-26T10:56:15.670Z,20.64
2022-08-26T10:57:52.680Z,20.59
2022-08-26T10:59:10.238Z,20.55
2022-08-26T11:00:41.671Z,20.52
2022-08-26T11:02:03.969Z,20.49
2022-08-26T11:03:22.657Z,20.47
2022-08-26T11:04:53.213Z,20.45
2022-08-26T11:06:23.007Z,20.42
2022-08-26T11:07:39.393Z,20.39
2022-08-26T11:09:02.960Z,20.36
2022-08-26T11:10:24.799Z,20.33
2022-08-26T11:11:49.147Z,20.31
2022-08-26T11:13:12.329Z,20.28
2022-08-26T11:14:28.501Z,20.26
2022-08-26T11:15:42.580Z,20.23
2022-08-26T11:16:54.226Z,20.21
2022-08-26T11:18:13.357Z,20.19
2022-08-26T11:20:00.092Z,20.17
2022-08-26T11:21:49.393Z,20.14
2022-08-26T11:23:38.773Z,20.12
2022-08-26T11:25:00.376Z,20.11
2022-08-26T11:26:11.557Z,20.11
2022-08-26T11:27:43.708Z,20.10
2022-08-26T11:28:52.333Z,20.08
2022-08-26T11:30:18.373Z,20.05
2022-08-26T11:31:28.780Z,20.00
2022-08-26T11:32:42.571Z,19.97
2022-08-26T11:34:00.500Z,19.95
2022-08-26T11:35:13.011Z,19.93
2022-08-26T11:36:40.115Z,19.91
2022-08-26T11:37:47.349Z,19.89
2022-08-26T11:38:54.658Z,19.87
2022-08-26T11:40:02.848Z,19.86
2022-08-26T11:41:20.352Z,19.85
2022-08-26T11:42:53.377Z,19.83
2022-08-26T11:44:03.542Z,19.82
2022-08-26T11:45:34.455Z,19.81
2022-08-26T11:47:15.967Z,19.78
2022-08-26T11:48:25.717Z,19.75
2022-08-26T11:49:36.448Z,19.73
2022-08-26T11:51:25.308Z,19.72
2022-08-26T11:52:33.327Z,19.70
2022-08-26T11:53:44.262Z,19.70
2022-08-26T11:55:12.295Z,19.68
2022-08-26T11:56:36.159Z,19.67
2022-08-26T11:57:47.030Z,19.67
2022-08-26T11:58:56.792Z,19.67
2022-08-26T12:00:05.165Z,19.66
2022-08-26T12:01:27.387Z,19.67
2022-08-26T12:02:41.257Z,19.68
2022-08-26T12:03:55.579Z,19.68
2022-08-26T12:05:09.151Z,19.67
2022-08-26T12:06:19.148Z,19.65
2022-08-26T12:07:35.108Z,19.64
2022-08-26T12:08:46.709Z,19.62
2022-08-26T12:10:08.396Z,19.60
2022-08-26T12:11:27.276Z,19.59
2022-08-26T12:12:44.222Z,19.57
2022-08-26T12:14:17.897Z,19.57
2022-08-26T12:15:31.088Z,19.55
2022-08-26T12:16:41.030Z,19.54
2022-08-26T12:17:54.357Z,19.56
2022-08-26T12:19:03.208Z,19.58
2022-08-26T12:20:48.269Z,19.58
2022-08-26T12:22:02.853Z,19.58
2022-08-26T12:23:10.308Z,19.57
2022-08-26T12:24:20.834Z,19.57
2022-08-26T12:25:30.673Z,19.57
2022-08-26T12:26:52.747Z,19.57
2022-08-26T12:28:05.206Z,19.56
2022-08-26T12:29:28.569Z,19.55
2022-08-26T12:30:37.449Z,19.53
2022-08-26T12:31:45.905Z,19.53
2022-08-26T12:33:22.032Z,19.53
2022-08-26T12:34:34.566Z,19.51
2022-08-26T12:35:42.341Z,19.51
2022-08-26T12:38:13.880Z,19.49
2022-08-26T12:39:40.534Z,19.49
2022-08-26T12:40:51.745Z,19.48
2022-08-26T12:42:00.970Z,19.46
2022-08-26T12:43:09.562Z,19.45
2022-08-26T12:44:57.245Z,19.43
2022-08-26T12:46:07.470Z,19.41
2022-08-26T12:47:20.500Z,19.38
2022-08-26T12:48:39.610Z,19.37
2022-08-26T12:49:46.737Z,19.37
2022-08-26T12:50:54.104Z,19.36
2022-08-26T12:52:01.208Z,19.36
2022-08-26T12:53:29.194Z,19.36
2022-08-26T12:54:58.206Z,19.34
2022-08-26T12:56:29.799Z,19.34
2022-08-26T12:57:39.905Z,19.32
2022-08-26T13:00:38.832Z,19.32
2022-08-26T13:01:46.138Z,19.30
2022-08-26T13:02:54.624Z,19.28
2022-08-26T13:04:02.188Z,19.28
2022-08-26T13:05:11.009Z,19.29
2022-08-26T13:06:25.036Z,19.29
2022-08-26T13:07:34.469Z,19.29
2022-08-26T13:08:48.859Z,19.29
2022-08-26T13:09:59.388Z,19.31
2022-08-26T13:11:22.400Z,19.31
2022-08-26T13:12:34.928Z,19.32
2022-08-26T13:13:43.529Z,19.33
2022-08-26T13:14:52.522Z,19.33
2022-08-26T13:16:01.261Z,19.33
2022-08-26T13:17:08.933Z,19.34
2022-08-26T13:18:20.552Z,19.35
2022-08-26T13:19:29.417Z,19.36
2022-08-26T13:20:45.155Z,19.37
2022-08-26T13:21:55.452Z,19.40
2022-08-26T13:23:06.107Z,19.42
2022-08-26T13:24:14.985Z,19.45
2022-08-26T13:25:23.968Z,19.48
2022-08-26T13:26:32.277Z,19.51
2022-08-26T13:27:39.468Z,19.54
2022-08-26T13:28:48.619Z,19.57
2022-08-26T13:30:09.731Z,19.59
2022-08-26T13:31:21.808Z,19.60
2022-08-26T13:32:35.087Z,19.60
2022-08-26T13:33:46.812Z,19.62
2022-08-26T13:34:56.581Z,19.63
2022-08-26T13:36:03.737Z,19.66
2022-08-26T13:37:11.156Z,19.68
2022-08-26T13:38:33.737Z,19.72
2022-08-26T13:39:43.629Z,19.77
2022-08-26T13:40:50.804Z,19.85
2022-08-26T13:41:58.272Z,19.94
2022-08-26T13:43:04.852Z,20.06
2022-08-26T13:44:14.050Z,20.17
2022-08-26T13:45:22.914Z,20.28
2022-08-26T13:46:30.953Z,20.36
2022-08-26T13:47:38.399Z,20.41
2022-08-26T13:48:46.002Z,20.45
2022-08-26T13:49:53.292Z,20.52
2022-08-26T13:51:01.634Z,20.63
2022-08-26T13:52:10.035Z,20.78
2022-08-26T13:53:17.983Z,20.96
2022-08-26T13:54:26.288Z,21.14
2022-08-26T13:55:35.389Z,21.34
2022-08-26T13:56:43.593Z,21.54
2022-08-26T13:57:51.107Z,21.70
2022-08-26T13:58:59.418Z,21.86
2022-08-26T14:00:10.934Z,22.05
2022-08-26T14:01:18.770Z,22.24
2022-08-26T14:02:29.249Z,22.41
2022-08-26T14:03:36.372Z,22.59
2022-08-26T14:04:43.946Z,22.80
2022-08-26T14:05:52.517Z,23.01
2022-08-26T14:06:59.688Z,23.18
2022-08-26T14:08:07.021Z,23.33
2022-08-26T14:09:15.355Z,23.47
2022-08-26T14:10:24.065Z,23.62
2022-08-26T14:11:41.195Z,23.75
2022-08-26T14:12:58.796Z,23.87
2022-08-26T14:14:08.836Z,23.91
2022-08-26T14:15:17.500Z,23.90
2022-08-26T14:16:35.920Z,23.90
2022-08-26T14:17:45.033Z,23.86
2022-08-26T14:18:53.823Z,23.77
2022-08-26T14:20:01.857Z,23.65
2022-08-26T14:21:11.699Z,23.54
2022-08-26T14:22:21.018Z,23.43
2022-08-26T14:23:35.159Z,23.37
2022-08-26T14:24:51.192Z,23.33
2022-08-26T14:26:00.255Z,23.36
2022-08-26T14:27:09.653Z,23.39
2022-08-26T14:28:20.272Z,23.51
2022-08-26T14:29:31.619Z,23.69
2022-08-26T14:31:06.218Z,23.86
2022-08-26T14:32:24.659Z,24.11
2022-08-26T14:33:37.889Z,24.40
2022-08-26T14:34:47.839Z,24.70
2022-08-26T14:36:20.499Z,25.03
2022-08-26T14:37:28.169Z,25.44
2022-08-26T14:38:39.533Z,25.74
2022-08-26T14:39:48.426Z,25.99
2022-08-26T14:40:59.724Z,26.21
2022-08-26T14:42:11.791Z,26.29
2022-08-26T14:43:27.886Z,26.37
2022-08-26T14:44:36.434Z,26.55
2022-08-26T14:45:45.864Z,26.64
2022-08-26T14:46:54.546Z,26.69
2022-08-26T14:48:04.729Z,26.76
2022-08-26T14:49:12.531Z,26.74
2022-08-26T14:50:25.547Z,26.77
2022-08-26T14:51:34.390Z,26.89
2022-08-26T14:53:01.479Z,27.01
2022-08-26T14:54:14.474Z,27.00
2022-08-26T14:55:23.063Z,26.92
2022-08-26T14:56:31.642Z,26.85
2022-08-26T14:57:40.187Z,26.82
2022-08-26T14:58:48.048Z,26.83
2022-08-26T14:59:55.417Z,26.85
2022-08-26T15:01:04.127Z,26.90
2022-08-26T15:02:22.283Z,26.99
2022-08-26T15:03:44.549Z,27.16
2022-08-26T15:04:53.042Z,27.20
2022-08-26T15:06:01.013Z,27.17
2022-08-26T15:07:12.723Z,27.21
2022-08-26T15:08:22.254Z,27.25
2022-08-26T15:09:30.578Z,27.28
2022-08-26T15:10:40.492Z,27.44
2022-08-26T15:11:49.921Z,27.68
2022-08-26T15:12:57.848Z,27.87
2022-08-26T15:14:07.651Z,27.95
2022-08-26T15:15:28.470Z,28.05
2022-08-26T15:16:39.159Z,28.22
2022-08-26T15:17:47.284Z,28.38
2022-08-26T15:18:58.586Z,28.50
2022-08-26T15:20:10.086Z,28.55
2022-08-26T15:21:20.616Z,28.66
2022-08-26T15:22:29.577Z,28.89
2022-08-26T15:23:41.002Z,29.12
2022-08-26T15:24:55.933Z,29.31
2022-08-26T15:26:06.199Z,29.47
2022-08-26T15:27:15.368Z,29.69
2022-08-26T15:28:24.553Z,29.91
2022-08-26T15:29:36.193Z,30.04
2022-08-26T15:30:44.906Z,30.03
2022-08-26T15:31:56.820Z,29.87
2022-08-26T15:33:15.291Z,29.72
2022-08-26T15:34:28.950Z,29.73
2022-08-26T15:35:38.529Z,29.80
2022-08-26T15:36:57.044Z,29.88
2022-08-26T15:38:04.609Z,29.85
2022-08-26T15:39:14.968Z,29.79
2022-08-26T15:40:22.180Z,29.75
2022-08-26T15:41:31.471Z,29.72
2022-08-26T15:42:43.721Z,29.62
2022-08-26T15:44:03.414Z,29.58
2022-08-26T15:45:12.418Z,29.70
2022-08-26T15:46:33.830Z,29.87